sensor_id;sensor_type;location;lat;lon;timestamp;P1;durP1;ratioP1;P2;durP2;ratioP2
19505;SDS011;9894;50.852;-0.140;2023-07-02T00:00:36;1.25;;;1.25;;
19505;SDS011;9894;50.852;-0.140;2023-07-02T00:03:03;13.73;;;3.50;;
19505;SDS011;9894;50.852;-0.140;2023-07-02T00:05:30;0.80;;;0.80;;
19505;SDS011;9894;50.852;-0.140;2023-07-02T00:07:56;0.90;;;0.90;;
19505;SDS011;9894;50.852;-0.140;2023-07-02T00:10:22;5.63;;;3.05;;
19505;SDS011;9894;50.852;-0.140;2023-07-02T00:12:48;1.65;;;1.55;;
19505;SDS011;9894;50.852;-0.140;2023-07-02T00:15:14;0.82;;;0.82;;
19505;SDS011;9894;50.852;-0.140;2023-07-02T00:17:41;1.35;;;1.35;;
19505;SDS011;9894;50.852;-0.140;2023-07-02T00:20:07;0.85;;;0.85;;
19505;SDS011;9894;50.852;-0.140;2023-07-02T00:22:40;0.90;;;0.90;;
19505;SDS011;9894;50.852;-0.140;2023-07-02T00:25:10;0.90;;;0.90;;
19505;SDS011;9894;50.852;-0.140;2023-07-02T00:27:36;2.45;;;2.25;;
19505;SDS011;9894;50.852;-0.140;2023-07-02T00:30:03;0.90;;;0.90;;
19505;SDS011;9894;50.852;-0.140;2023-07-02T00:32:29;1.00;;;1.00;;
19505;SDS011;9894;50.852;-0.140;2023-07-02T00:34:56;1.10;;;1.10;;
19505;SDS011;9894;50.852;-0.140;2023-07-02T00:37:22;1.10;;;1.10;;
19505;SDS011;9894;50.852;-0.140;2023-07-02T00:39:51;1.10;;;1.10;;
19505;SDS011;9894;50.852;-0.140;2023-07-02T00:42:17;1.10;;;1.10;;
19505;SDS011;9894;50.852;-0.140;2023-07-02T00:44:45;1.10;;;1.10;;
19505;SDS011;9894;50.852;-0.140;2023-07-02T00:47:11;1.20;;;1.20;;
19505;SDS011;9894;50.852;-0.140;2023-07-02T00:49:37;1.10;;;1.10;;
19505;SDS011;9894;50.852;-0.140;2023-07-02T00:52:05;1.10;;;1.10;;
19505;SDS011;9894;50.852;-0.140;2023-07-02T00:54:31;1.10;;;1.10;;
19505;SDS011;9894;50.852;-0.140;2023-07-02T00:56:57;1.00;;;1.00;;
19505;SDS011;9894;50.852;-0.140;2023-07-02T00:59:27;1.00;;;1.00;;
19505;SDS011;9894;50.852;-0.140;2023-07-02T01:01:55;1.00;;;1.00;;
19505;SDS011;9894;50.852;-0.140;2023-07-02T01:04:22;0.80;;;0.80;;
19505;SDS011;9894;50.852;-0.140;2023-07-02T01:06:52;0.80;;;0.80;;
19505;SDS011;9894;50.852;-0.140;2023-07-02T01:09:22;0.70;;;0.70;;
19505;SDS011;9894;50.852;-0.140;2023-07-02T01:11:54;0.80;;;0.80;;
19505;SDS011;9894;50.852;-0.140;2023-07-02T01:14:26;0.90;;;0.90;;
19505;SDS011;9894;50.852;-0.140;2023-07-02T01:16:52;1.88;;;1.67;;
19505;SDS011;9894;50.852;-0.140;2023-07-02T01:22:06;0.70;;;0.70;;
19505;SDS011;9894;50.852;-0.140;2023-07-02T01:24:32;0.70;;;0.70;;
19505;SDS011;9894;50.852;-0.140;2023-07-02T01:26:58;0.90;;;0.90;;
19505;SDS011;9894;50.852;-0.140;2023-07-02T01:29:28;0.60;;;0.60;;
19505;SDS011;9894;50.852;-0.140;2023-07-02T01:31:55;0.65;;;0.65;;
19505;SDS011;9894;50.852;-0.140;2023-07-02T01:34:21;0.50;;;0.50;;
19505;SDS011;9894;50.852;-0.140;2023-07-02T01:36:47;0.40;;;0.40;;
19505;SDS011;9894;50.852;-0.140;2023-07-02T01:39:13;0.50;;;0.50;;
19505;SDS011;9894;50.852;-0.140;2023-07-02T01:42:23;8.43;;;1.30;;
19505;SDS011;9894;50.852;-0.140;2023-07-02T01:44:30;2.17;;;1.40;;
19505;SDS011;9894;50.852;-0.140;2023-07-02T01:46:56;0.30;;;0.30;;
19505;SDS011;9894;50.852;-0.140;2023-07-02T01:49:23;1.38;;;0.90;;
19505;SDS011;9894;50.852;-0.140;2023-07-02T01:51:50;18.45;;;2.70;;
19505;SDS011;9894;50.852;-0.140;2023-07-02T01:54:18;7.47;;;2.00;;
19505;SDS011;9894;50.852;-0.140;2023-07-02T01:56:44;0.52;;;0.50;;
19505;SDS011;9894;50.852;-0.140;2023-07-02T01:59:10;0.20;;;0.20;;
19505;SDS011;9894;50.852;-0.140;2023-07-02T02:01:37;0.75;;;0.60;;
19505;SDS011;9894;50.852;-0.140;2023-07-02T02:04:06;0.20;;;0.20;;
19505;SDS011;9894;50.852;-0.140;2023-07-02T02:06:33;0.15;;;0.15;;
19505;SDS011;9894;50.852;-0.140;2023-07-02T02:08:59;0.10;;;0.10;;
19505;SDS011;9894;50.852;-0.140;2023-07-02T02:11:25;0.28;;;0.28;;
19505;SDS011;9894;50.852;-0.140;2023-07-02T02:13:52;0.10;;;0.10;;
19505;SDS011;9894;50.852;-0.140;2023-07-02T02:16:18;0.20;;;0.20;;
19505;SDS011;9894;50.852;-0.140;2023-07-02T02:18:44;1.25;;;0.55;;
19505;SDS011;9894;50.852;-0.140;2023-07-02T02:21:10;0.10;;;0.10;;
19505;SDS011;9894;50.852;-0.140;2023-07-02T02:23:36;0.10;;;0.10;;
19505;SDS011;9894;50.852;-0.140;2023-07-02T02:26:02;0.22;;;0.22;;
19505;SDS011;9894;50.852;-0.140;2023-07-02T02:28:28;2.72;;;0.52;;
19505;SDS011;9894;50.852;-0.140;2023-07-02T02:30:54;1.08;;;0.80;;
19505;SDS011;9894;50.852;-0.140;2023-07-02T02:33:21;0.10;;;0.10;;
19505;SDS011;9894;50.852;-0.140;2023-07-02T02:35:47;0.40;;;0.40;;
19505;SDS011;9894;50.852;-0.140;2023-07-02T02:38:14;0.20;;;0.20;;
19505;SDS011;9894;50.852;-0.140;2023-07-02T02:40:40;0.65;;;0.65;;
19505;SDS011;9894;50.852;-0.140;2023-07-02T02:43:06;0.30;;;0.30;;
19505;SDS011;9894;50.852;-0.140;2023-07-02T02:45:32;0.10;;;0.10;;
19505;SDS011;9894;50.852;-0.140;2023-07-02T02:47:58;0.15;;;0.15;;
19505;SDS011;9894;50.852;-0.140;2023-07-02T02:50:24;0.10;;;0.10;;
19505;SDS011;9894;50.852;-0.140;2023-07-02T02:52:50;0.30;;;0.30;;
19505;SDS011;9894;50.852;-0.140;2023-07-02T02:55:16;0.35;;;0.35;;
19505;SDS011;9894;50.852;-0.140;2023-07-02T02:57:42;0.22;;;0.22;;
19505;SDS011;9894;50.852;-0.140;2023-07-02T03:00:09;0.10;;;0.10;;
19505;SDS011;9894;50.852;-0.140;2023-07-02T03:02:36;0.10;;;0.10;;
19505;SDS011;9894;50.852;-0.140;2023-07-02T03:05:02;0.30;;;0.30;;
19505;SDS011;9894;50.852;-0.140;2023-07-02T03:07:29;0.10;;;0.10;;
19505;SDS011;9894;50.852;-0.140;2023-07-02T03:09:55;0.10;;;0.10;;
19505;SDS011;9894;50.852;-0.140;2023-07-02T03:12:21;0.68;;;0.68;;
19505;SDS011;9894;50.852;-0.140;2023-07-02T03:14:48;0.20;;;0.20;;
19505;SDS011;9894;50.852;-0.140;2023-07-02T03:17:22;0.10;;;0.10;;
19505;SDS011;9894;50.852;-0.140;2023-07-02T03:19:48;0.10;;;0.10;;
19505;SDS011;9894;50.852;-0.140;2023-07-02T03:22:14;0.10;;;0.10;;
19505;SDS011;9894;50.852;-0.140;2023-07-02T03:24:40;0.10;;;0.10;;
19505;SDS011;9894;50.852;-0.140;2023-07-02T03:27:07;0.68;;;0.68;;
19505;SDS011;9894;50.852;-0.140;2023-07-02T03:29:36;0.20;;;0.20;;
19505;SDS011;9894;50.852;-0.140;2023-07-02T03:32:03;0.10;;;0.10;;
19505;SDS011;9894;50.852;-0.140;2023-07-02T03:34:30;0.10;;;0.10;;
19505;SDS011;9894;50.852;-0.140;2023-07-02T03:36:56;0.10;;;0.10;;
19505;SDS011;9894;50.852;-0.140;2023-07-02T03:39:22;0.10;;;0.10;;
19505;SDS011;9894;50.852;-0.140;2023-07-02T03:41:48;0.10;;;0.10;;
19505;SDS011;9894;50.852;-0.140;2023-07-02T03:44:14;0.40;;;0.40;;
19505;SDS011;9894;50.852;-0.140;2023-07-02T03:46:40;0.10;;;0.10;;
19505;SDS011;9894;50.852;-0.140;2023-07-02T03:49:06;0.20;;;0.20;;
19505;SDS011;9894;50.852;-0.140;2023-07-02T03:51:32;0.17;;;0.17;;
19505;SDS011;9894;50.852;-0.140;2023-07-02T03:53:59;0.10;;;0.10;;
19505;SDS011;9894;50.852;-0.140;2023-07-02T03:56:25;0.10;;;0.10;;
19505;SDS011;9894;50.852;-0.140;2023-07-02T03:58:51;0.10;;;0.10;;
19505;SDS011;9894;50.852;-0.140;2023-07-02T04:01:17;0.52;;;0.52;;
19505;SDS011;9894;50.852;-0.140;2023-07-02T04:03:50;0.30;;;0.30;;
19505;SDS011;9894;50.852;-0.140;2023-07-02T04:06:17;0.10;;;0.10;;
19505;SDS011;9894;50.852;-0.140;2023-07-02T04:08:43;0.20;;;0.20;;
19505;SDS011;9894;50.852;-0.140;2023-07-02T04:11:09;0.10;;;0.10;;
19505;SDS011;9894;50.852;-0.140;2023-07-02T04:13:36;0.10;;;0.10;;
19505;SDS011;9894;50.852;-0.140;2023-07-02T04:16:02;0.10;;;0.10;;
19505;SDS011;9894;50.852;-0.140;2023-07-02T04:18:28;0.30;;;0.30;;
19505;SDS011;9894;50.852;-0.140;2023-07-02T04:20:54;0.10;;;0.10;;
19505;SDS011;9894;50.852;-0.140;2023-07-02T04:23:20;0.10;;;0.10;;
19505;SDS011;9894;50.852;-0.140;2023-07-02T04:25:46;0.10;;;0.10;;
19505;SDS011;9894;50.852;-0.140;2023-07-02T04:28:12;0.10;;;0.10;;
19505;SDS011;9894;50.852;-0.140;2023-07-02T04:30:39;0.30;;;0.30;;
19505;SDS011;9894;50.852;-0.140;2023-07-02T04:33:05;0.10;;;0.10;;
19505;SDS011;9894;50.852;-0.140;2023-07-02T04:35:31;0.10;;;0.10;;
19505;SDS011;9894;50.852;-0.140;2023-07-02T04:37:57;0.10;;;0.10;;
19505;SDS011;9894;50.852;-0.140;2023-07-02T04:40:24;2.78;;;0.95;;
19505;SDS011;9894;50.852;-0.140;2023-07-02T04:42:50;0.10;;;0.10;;
19505;SDS011;9894;50.852;-0.140;2023-07-02T04:45:22;0.10;;;0.10;;
19505;SDS011;9894;50.852;-0.140;2023-07-02T04:47:49;0.20;;;0.20;;
19505;SDS011;9894;50.852;-0.140;2023-07-02T04:50:15;0.10;;;0.10;;
19505;SDS011;9894;50.852;-0.140;2023-07-02T04:52:41;0.10;;;0.10;;
19505;SDS011;9894;50.852;-0.140;2023-07-02T04:55:07;0.13;;;0.13;;
19505;SDS011;9894;50.852;-0.140;2023-07-02T04:57:34;0.40;;;0.40;;
19505;SDS011;9894;50.852;-0.140;2023-07-02T05:00:00;0.10;;;0.10;;
19505;SDS011;9894;50.852;-0.140;2023-07-02T05:02:26;0.10;;;0.10;;
19505;SDS011;9894;50.852;-0.140;2023-07-02T05:04:52;0.10;;;0.10;;
19505;SDS011;9894;50.852;-0.140;2023-07-02T05:07:18;0.10;;;0.10;;
19505;SDS011;9894;50.852;-0.140;2023-07-02T05:09:44;0.10;;;0.10;;
19505;SDS011;9894;50.852;-0.140;2023-07-02T05:12:10;0.10;;;0.10;;
19505;SDS011;9894;50.852;-0.140;2023-07-02T05:14:36;0.47;;;0.40;;
19505;SDS011;9894;50.852;-0.140;2023-07-02T05:17:03;0.10;;;0.10;;
19505;SDS011;9894;50.852;-0.140;2023-07-02T05:19:29;0.40;;;0.40;;
19505;SDS011;9894;50.852;-0.140;2023-07-02T05:21:55;15.27;;;3.67;;
19505;SDS011;9894;50.852;-0.140;2023-07-02T05:24:21;0.40;;;0.25;;
19505;SDS011;9894;50.852;-0.140;2023-07-02T05:26:47;5.95;;;1.77;;
19505;SDS011;9894;50.852;-0.140;2023-07-02T05:29:13;1.17;;;0.82;;
19505;SDS011;9894;50.852;-0.140;2023-07-02T05:31:40;5.47;;;1.75;;
19505;SDS011;9894;50.852;-0.140;2023-07-02T05:34:06;0.25;;;0.25;;
19505;SDS011;9894;50.852;-0.140;2023-07-02T05:36:32;1.25;;;0.50;;
19505;SDS011;9894;50.852;-0.140;2023-07-02T05:38:59;1.00;;;0.75;;
19505;SDS011;9894;50.852;-0.140;2023-07-02T05:41:25;0.50;;;0.50;;
19505;SDS011;9894;50.852;-0.140;2023-07-02T05:43:56;4.65;;;3.80;;
19505;SDS011;9894;50.852;-0.140;2023-07-02T05:46:22;1.20;;;1.08;;
19505;SDS011;9894;50.852;-0.140;2023-07-02T05:48:48;5.55;;;1.65;;
19505;SDS011;9894;50.852;-0.140;2023-07-02T05:51:19;0.20;;;0.20;;
19505;SDS011;9894;50.852;-0.140;2023-07-02T05:53:45;16.25;;;3.70;;
19505;SDS011;9894;50.852;-0.140;2023-07-02T05:56:12;7.10;;;1.55;;
19505;SDS011;9894;50.852;-0.140;2023-07-02T05:58:41;0.85;;;0.60;;
19505;SDS011;9894;50.852;-0.140;2023-07-02T06:01:07;0.93;;;0.70;;
19505;SDS011;9894;50.852;-0.140;2023-07-02T06:03:33;0.20;;;0.20;;
19505;SDS011;9894;50.852;-0.140;2023-07-02T06:05:59;0.20;;;0.20;;
19505;SDS011;9894;50.852;-0.140;2023-07-02T06:08:25;7.95;;;1.33;;
19505;SDS011;9894;50.852;-0.140;2023-07-02T06:10:51;0.40;;;0.40;;
19505;SDS011;9894;50.852;-0.140;2023-07-02T06:13:17;0.52;;;0.52;;
19505;SDS011;9894;50.852;-0.140;2023-07-02T06:15:43;6.00;;;1.75;;
19505;SDS011;9894;50.852;-0.140;2023-07-02T06:18:12;0.20;;;0.20;;
19505;SDS011;9894;50.852;-0.140;2023-07-02T06:20:41;0.40;;;0.40;;
19505;SDS011;9894;50.852;-0.140;2023-07-02T06:23:07;2.40;;;0.50;;
19505;SDS011;9894;50.852;-0.140;2023-07-02T06:25:33;0.73;;;0.60;;
19505;SDS011;9894;50.852;-0.140;2023-07-02T06:27:59;0.30;;;0.30;;
19505;SDS011;9894;50.852;-0.140;2023-07-02T06:30:25;7.95;;;1.92;;
19505;SDS011;9894;50.852;-0.140;2023-07-02T06:32:52;0.30;;;0.30;;
19505;SDS011;9894;50.852;-0.140;2023-07-02T06:35:21;7.75;;;2.60;;
19505;SDS011;9894;50.852;-0.140;2023-07-02T06:37:47;0.40;;;0.40;;
19505;SDS011;9894;50.852;-0.140;2023-07-02T06:40:13;5.88;;;1.77;;
19505;SDS011;9894;50.852;-0.140;2023-07-02T06:42:39;0.50;;;0.50;;
19505;SDS011;9894;50.852;-0.140;2023-07-02T06:45:06;2.28;;;0.88;;
19505;SDS011;9894;50.852;-0.140;2023-07-02T06:47:32;0.50;;;0.50;;
19505;SDS011;9894;50.852;-0.140;2023-07-02T06:49:58;7.43;;;2.45;;
19505;SDS011;9894;50.852;-0.140;2023-07-02T06:52:24;0.60;;;0.60;;
19505;SDS011;9894;50.852;-0.140;2023-07-02T06:54:50;0.70;;;0.70;;
19505;SDS011;9894;50.852;-0.140;2023-07-02T06:57:17;2.28;;;1.63;;
19505;SDS011;9894;50.852;-0.140;2023-07-02T06:59:43;3.33;;;2.13;;
19505;SDS011;9894;50.852;-0.140;2023-07-02T07:02:09;2.17;;;1.75;;
19505;SDS011;9894;50.852;-0.140;2023-07-02T07:04:35;2.25;;;1.98;;
19505;SDS011;9894;50.852;-0.140;2023-07-02T07:07:01;2.20;;;2.10;;
19505;SDS011;9894;50.852;-0.140;2023-07-02T07:09:31;3.05;;;2.63;;
19505;SDS011;9894;50.852;-0.140;2023-07-02T07:11:57;3.95;;;3.55;;
19505;SDS011;9894;50.852;-0.140;2023-07-02T07:14:23;3.33;;;3.15;;
19505;SDS011;9894;50.852;-0.140;2023-07-02T07:16:49;3.83;;;3.63;;
19505;SDS011;9894;50.852;-0.140;2023-07-02T07:19:16;10.23;;;9.27;;
19505;SDS011;9894;50.852;-0.140;2023-07-02T07:21:42;5.57;;;5.07;;
19505;SDS011;9894;50.852;-0.140;2023-07-02T07:24:08;5.95;;;5.15;;
19505;SDS011;9894;50.852;-0.140;2023-07-02T07:26:35;4.80;;;4.50;;
19505;SDS011;9894;50.852;-0.140;2023-07-02T07:29:01;8.88;;;6.45;;
19505;SDS011;9894;50.852;-0.140;2023-07-02T07:31:27;11.48;;;7.18;;
19505;SDS011;9894;50.852;-0.140;2023-07-02T07:33:53;12.43;;;6.78;;
19505;SDS011;9894;50.852;-0.140;2023-07-02T07:36:19;6.40;;;6.00;;
19505;SDS011;9894;50.852;-0.140;2023-07-02T07:38:46;7.20;;;6.70;;
19505;SDS011;9894;50.852;-0.140;2023-07-02T07:41:12;8.80;;;8.05;;
19505;SDS011;9894;50.852;-0.140;2023-07-02T07:43:38;8.50;;;7.90;;
19505;SDS011;9894;50.852;-0.140;2023-07-02T07:46:04;9.05;;;8.27;;
19505;SDS011;9894;50.852;-0.140;2023-07-02T07:48:30;10.23;;;9.10;;
19505;SDS011;9894;50.852;-0.140;2023-07-02T07:50:57;9.10;;;8.50;;
19505;SDS011;9894;50.852;-0.140;2023-07-02T07:53:23;10.30;;;9.55;;
19505;SDS011;9894;50.852;-0.140;2023-07-02T07:55:49;10.02;;;9.32;;
19505;SDS011;9894;50.852;-0.140;2023-07-02T07:58:15;11.95;;;9.45;;
19505;SDS011;9894;50.852;-0.140;2023-07-02T08:00:41;8.00;;;7.30;;
19505;SDS011;9894;50.852;-0.140;2023-07-02T08:03:07;7.05;;;6.63;;
19505;SDS011;9894;50.852;-0.140;2023-07-02T08:05:33;7.70;;;7.20;;
19505;SDS011;9894;50.852;-0.140;2023-07-02T08:07:59;8.13;;;7.40;;
19505;SDS011;9894;50.852;-0.140;2023-07-02T08:10:26;8.23;;;7.72;;
19505;SDS011;9894;50.852;-0.140;2023-07-02T08:12:53;17.65;;;9.40;;
19505;SDS011;9894;50.852;-0.140;2023-07-02T08:15:19;8.60;;;8.00;;
19505;SDS011;9894;50.852;-0.140;2023-07-02T08:17:45;10.05;;;8.88;;
19505;SDS011;9894;50.852;-0.140;2023-07-02T08:20:11;9.45;;;8.75;;
19505;SDS011;9894;50.852;-0.140;2023-07-02T08:22:38;8.05;;;7.47;;
19505;SDS011;9894;50.852;-0.140;2023-07-02T08:25:04;8.27;;;7.68;;
19505;SDS011;9894;50.852;-0.140;2023-07-02T08:27:30;7.90;;;7.35;;
19505;SDS011;9894;50.852;-0.140;2023-07-02T08:29:56;13.07;;;8.35;;
19505;SDS011;9894;50.852;-0.140;2023-07-02T08:32:23;11.02;;;7.45;;
19505;SDS011;9894;50.852;-0.140;2023-07-02T08:34:49;9.38;;;6.82;;
19505;SDS011;9894;50.852;-0.140;2023-07-02T08:37:18;6.20;;;5.80;;
19505;SDS011;9894;50.852;-0.140;2023-07-02T08:39:44;8.38;;;7.53;;
19505;SDS011;9894;50.852;-0.140;2023-07-02T08:42:10;10.30;;;7.40;;
19505;SDS011;9894;50.852;-0.140;2023-07-02T08:44:36;10.23;;;7.68;;
19505;SDS011;9894;50.852;-0.140;2023-07-02T08:47:03;13.02;;;6.68;;
19505;SDS011;9894;50.852;-0.140;2023-07-02T08:49:29;27.58;;;7.50;;
19505;SDS011;9894;50.852;-0.140;2023-07-02T08:51:55;12.40;;;6.40;;
19505;SDS011;9894;50.852;-0.140;2023-07-02T08:54:21;8.93;;;7.05;;
19505;SDS011;9894;50.852;-0.140;2023-07-02T08:56:48;10.00;;;6.82;;
19505;SDS011;9894;50.852;-0.140;2023-07-02T08:59:14;7.45;;;6.75;;
19505;SDS011;9894;50.852;-0.140;2023-07-02T09:06:45;5.88;;;5.47;;
19505;SDS011;9894;50.852;-0.140;2023-07-02T09:09:11;5.93;;;5.53;;
19505;SDS011;9894;50.852;-0.140;2023-07-02T09:11:47;14.23;;;7.65;;
19505;SDS011;9894;50.852;-0.140;2023-07-02T09:14:30;13.10;;;6.70;;
19505;SDS011;9894;50.852;-0.140;2023-07-02T09:17:01;11.52;;;7.50;;
19505;SDS011;9894;50.852;-0.140;2023-07-02T09:19:27;6.53;;;6.03;;
19505;SDS011;9894;50.852;-0.140;2023-07-02T09:21:56;5.63;;;5.30;;
19505;SDS011;9894;50.852;-0.140;2023-07-02T09:24:24;5.95;;;5.55;;
19505;SDS011;9894;50.852;-0.140;2023-07-02T09:26:54;6.28;;;5.85;;
19505;SDS011;9894;50.852;-0.140;2023-07-02T09:31:47;4.95;;;4.65;;
19505;SDS011;9894;50.852;-0.140;2023-07-02T09:34:14;6.70;;;6.10;;
19505;SDS011;9894;50.852;-0.140;2023-07-02T09:36:40;6.18;;;5.70;;
19505;SDS011;9894;50.852;-0.140;2023-07-02T09:39:07;7.75;;;6.05;;
19505;SDS011;9894;50.852;-0.140;2023-07-02T09:41:34;6.28;;;5.63;;
19505;SDS011;9894;50.852;-0.140;2023-07-02T09:44:00;18.00;;;5.57;;
19505;SDS011;9894;50.852;-0.140;2023-07-02T09:46:27;14.13;;;6.28;;
19505;SDS011;9894;50.852;-0.140;2023-07-02T09:48:54;5.70;;;5.30;;
19505;SDS011;9894;50.852;-0.140;2023-07-02T09:51:20;5.95;;;5.55;;
19505;SDS011;9894;50.852;-0.140;2023-07-02T09:53:46;5.30;;;5.00;;
19505;SDS011;9894;50.852;-0.140;2023-07-02T09:56:12;5.43;;;5.10;;
19505;SDS011;9894;50.852;-0.140;2023-07-02T09:58:40;6.10;;;5.50;;
19505;SDS011;9894;50.852;-0.140;2023-07-02T10:01:06;5.57;;;5.20;;
19505;SDS011;9894;50.852;-0.140;2023-07-02T10:03:32;7.75;;;5.72;;
19505;SDS011;9894;50.852;-0.140;2023-07-02T10:06:02;5.80;;;5.50;;
19505;SDS011;9894;50.852;-0.140;2023-07-02T10:08:29;5.50;;;5.20;;
19505;SDS011;9894;50.852;-0.140;2023-07-02T10:11:16;5.90;;;5.50;;
19505;SDS011;9894;50.852;-0.140;2023-07-02T10:13:42;5.85;;;5.45;;
19505;SDS011;9894;50.852;-0.140;2023-07-02T10:16:08;13.70;;;6.57;;
19505;SDS011;9894;50.852;-0.140;2023-07-02T10:18:34;7.22;;;6.63;;
19505;SDS011;9894;50.852;-0.140;2023-07-02T10:21:12;11.13;;;6.53;;
19505;SDS011;9894;50.852;-0.140;2023-07-02T10:23:38;14.10;;;7.97;;
19505;SDS011;9894;50.852;-0.140;2023-07-02T10:26:13;7.00;;;6.50;;
19505;SDS011;9894;50.852;-0.140;2023-07-02T10:28:40;6.43;;;6.03;;
19505;SDS011;9894;50.852;-0.140;2023-07-02T10:31:24;7.15;;;6.50;;
19505;SDS011;9894;50.852;-0.140;2023-07-02T10:33:50;6.03;;;5.63;;
19505;SDS011;9894;50.852;-0.140;2023-07-02T10:36:20;6.70;;;6.30;;
19505;SDS011;9894;50.852;-0.140;2023-07-02T10:38:47;9.00;;;6.82;;
19505;SDS011;9894;50.852;-0.140;2023-07-02T10:41:22;7.10;;;6.00;;
19505;SDS011;9894;50.852;-0.140;2023-07-02T10:43:49;7.10;;;6.40;;
19505;SDS011;9894;50.852;-0.140;2023-07-02T10:46:19;7.55;;;6.55;;
19505;SDS011;9894;50.852;-0.140;2023-07-02T10:48:55;16.33;;;6.80;;
19505;SDS011;9894;50.852;-0.140;2023-07-02T10:51:21;5.50;;;5.18;;
19505;SDS011;9894;50.852;-0.140;2023-07-02T10:54:02;6.22;;;5.60;;
19505;SDS011;9894;50.852;-0.140;2023-07-02T10:56:30;6.05;;;5.65;;
19505;SDS011;9894;50.852;-0.140;2023-07-02T10:58:57;4.80;;;4.50;;
19505;SDS011;9894;50.852;-0.140;2023-07-02T11:01:25;6.32;;;5.72;;
19505;SDS011;9894;50.852;-0.140;2023-07-02T11:03:58;8.60;;;6.35;;
19505;SDS011;9894;50.852;-0.140;2023-07-02T11:06:26;5.20;;;4.80;;
19505;SDS011;9894;50.852;-0.140;2023-07-02T11:08:52;5.60;;;5.10;;
19505;SDS011;9894;50.852;-0.140;2023-07-02T11:11:20;8.48;;;5.00;;
19505;SDS011;9894;50.852;-0.140;2023-07-02T11:13:47;5.10;;;4.75;;
19505;SDS011;9894;50.852;-0.140;2023-07-02T11:16:22;10.90;;;5.93;;
19505;SDS011;9894;50.852;-0.140;2023-07-02T11:18:51;9.30;;;6.20;;
19505;SDS011;9894;50.852;-0.140;2023-07-02T11:21:17;8.77;;;5.38;;
19505;SDS011;9894;50.852;-0.140;2023-07-02T11:23:43;5.97;;;5.40;;
19505;SDS011;9894;50.852;-0.140;2023-07-02T11:26:09;9.13;;;6.47;;
19505;SDS011;9894;50.852;-0.140;2023-07-02T11:28:35;5.10;;;4.80;;
19505;SDS011;9894;50.852;-0.140;2023-07-02T11:31:02;6.00;;;5.47;;
19505;SDS011;9894;50.852;-0.140;2023-07-02T11:33:38;12.55;;;5.18;;
19505;SDS011;9894;50.852;-0.140;2023-07-02T11:36:05;4.80;;;4.50;;
19505;SDS011;9894;50.852;-0.140;2023-07-02T11:38:32;11.73;;;5.65;;
19505;SDS011;9894;50.852;-0.140;2023-07-02T11:40:59;4.90;;;4.60;;
19505;SDS011;9894;50.852;-0.140;2023-07-02T11:43:25;7.15;;;6.55;;
19505;SDS011;9894;50.852;-0.140;2023-07-02T11:45:51;4.35;;;4.15;;
19505;SDS011;9894;50.852;-0.140;2023-07-02T11:48:17;4.72;;;4.43;;
19505;SDS011;9894;50.852;-0.140;2023-07-02T11:50:44;9.48;;;4.85;;
19505;SDS011;9894;50.852;-0.140;2023-07-02T11:53:10;36.45;;;8.93;;
19505;SDS011;9894;50.852;-0.140;2023-07-02T11:55:36;7.50;;;4.60;;
19505;SDS011;9894;50.852;-0.140;2023-07-02T11:58:02;6.72;;;4.53;;
19505;SDS011;9894;50.852;-0.140;2023-07-02T12:00:28;9.32;;;5.30;;
19505;SDS011;9894;50.852;-0.140;2023-07-02T12:02:55;4.60;;;4.30;;
19505;SDS011;9894;50.852;-0.140;2023-07-02T12:05:21;4.82;;;4.43;;
19505;SDS011;9894;50.852;-0.140;2023-07-02T12:07:47;4.70;;;4.40;;
19505;SDS011;9894;50.852;-0.140;2023-07-02T12:10:13;6.38;;;5.80;;
19505;SDS011;9894;50.852;-0.140;2023-07-02T12:12:39;5.00;;;4.70;;
19505;SDS011;9894;50.852;-0.140;2023-07-02T12:15:05;4.70;;;4.40;;
19505;SDS011;9894;50.852;-0.140;2023-07-02T12:17:31;4.72;;;4.43;;
19505;SDS011;9894;50.852;-0.140;2023-07-02T12:19:58;11.02;;;6.30;;
19505;SDS011;9894;50.852;-0.140;2023-07-02T12:22:24;8.02;;;5.13;;
19505;SDS011;9894;50.852;-0.140;2023-07-02T12:24:50;4.53;;;4.25;;
19505;SDS011;9894;50.852;-0.140;2023-07-02T12:27:18;5.57;;;5.05;;
19505;SDS011;9894;50.852;-0.140;2023-07-02T12:29:44;11.95;;;5.00;;
19505;SDS011;9894;50.852;-0.140;2023-07-02T12:32:11;6.10;;;5.70;;
19505;SDS011;9894;50.852;-0.140;2023-07-02T12:34:37;5.18;;;4.78;;
19505;SDS011;9894;50.852;-0.140;2023-07-02T12:37:03;8.88;;;5.47;;
19505;SDS011;9894;50.852;-0.140;2023-07-02T12:39:30;5.72;;;5.22;;
19505;SDS011;9894;50.852;-0.140;2023-07-02T12:41:56;13.15;;;6.93;;
19505;SDS011;9894;50.852;-0.140;2023-07-02T12:44:22;6.45;;;5.50;;
19505;SDS011;9894;50.852;-0.140;2023-07-02T12:46:49;5.32;;;5.00;;
19505;SDS011;9894;50.852;-0.140;2023-07-02T12:49:15;5.32;;;4.90;;
19505;SDS011;9894;50.852;-0.140;2023-07-02T12:51:41;6.05;;;5.55;;
19505;SDS011;9894;50.852;-0.140;2023-07-02T12:54:07;5.40;;;4.97;;
19505;SDS011;9894;50.852;-0.140;2023-07-02T12:56:33;5.65;;;5.20;;
19505;SDS011;9894;50.852;-0.140;2023-07-02T12:59:01;11.73;;;6.13;;
19505;SDS011;9894;50.852;-0.140;2023-07-02T13:01:28;9.52;;;7.28;;
19505;SDS011;9894;50.852;-0.140;2023-07-02T13:03:54;7.22;;;6.05;;
19505;SDS011;9894;50.852;-0.140;2023-07-02T13:06:20;5.45;;;5.15;;
19505;SDS011;9894;50.852;-0.140;2023-07-02T13:08:46;6.78;;;5.80;;
19505;SDS011;9894;50.852;-0.140;2023-07-02T13:11:12;7.50;;;5.88;;
19505;SDS011;9894;50.852;-0.140;2023-07-02T13:13:39;6.25;;;5.80;;
19505;SDS011;9894;50.852;-0.140;2023-07-02T13:16:06;7.88;;;5.75;;
19505;SDS011;9894;50.852;-0.140;2023-07-02T13:18:32;7.38;;;6.43;;
19505;SDS011;9894;50.852;-0.140;2023-07-02T13:21:01;7.50;;;6.25;;
19505;SDS011;9894;50.852;-0.140;2023-07-02T13:23:27;6.82;;;6.00;;
19505;SDS011;9894;50.852;-0.140;2023-07-02T13:25:53;5.20;;;4.90;;
19505;SDS011;9894;50.852;-0.140;2023-07-02T13:28:20;13.77;;;6.07;;
19505;SDS011;9894;50.852;-0.140;2023-07-02T13:30:47;6.20;;;5.80;;
19505;SDS011;9894;50.852;-0.140;2023-07-02T13:33:13;14.90;;;6.35;;
19505;SDS011;9894;50.852;-0.140;2023-07-02T13:35:39;7.78;;;7.05;;
19505;SDS011;9894;50.852;-0.140;2023-07-02T13:38:06;7.03;;;6.43;;
19505;SDS011;9894;50.852;-0.140;2023-07-02T13:40:32;6.93;;;6.40;;
19505;SDS011;9894;50.852;-0.140;2023-07-02T13:43:04;9.20;;;7.40;;
19505;SDS011;9894;50.852;-0.140;2023-07-02T13:45:30;11.80;;;7.80;;
19505;SDS011;9894;50.852;-0.140;2023-07-02T13:47:56;6.70;;;6.20;;
19505;SDS011;9894;50.852;-0.140;2023-07-02T13:50:23;7.20;;;6.70;;
19505;SDS011;9894;50.852;-0.140;2023-07-02T13:52:49;9.95;;;6.72;;
19505;SDS011;9894;50.852;-0.140;2023-07-02T13:55:15;8.77;;;6.43;;
19505;SDS011;9894;50.852;-0.140;2023-07-02T13:57:41;6.95;;;6.28;;
19505;SDS011;9894;50.852;-0.140;2023-07-02T14:00:07;12.75;;;6.85;;
19505;SDS011;9894;50.852;-0.140;2023-07-02T14:02:33;6.50;;;6.00;;
19505;SDS011;9894;50.852;-0.140;2023-07-02T14:05:01;6.05;;;5.60;;
19505;SDS011;9894;50.852;-0.140;2023-07-02T14:07:27;10.07;;;7.38;;
19505;SDS011;9894;50.852;-0.140;2023-07-02T14:09:53;10.30;;;6.47;;
19505;SDS011;9894;50.852;-0.140;2023-07-02T14:12:22;13.20;;;6.70;;
19505;SDS011;9894;50.852;-0.140;2023-07-02T14:14:48;8.65;;;5.63;;
19505;SDS011;9894;50.852;-0.140;2023-07-02T14:17:15;9.15;;;5.95;;
19505;SDS011;9894;50.852;-0.140;2023-07-02T14:19:41;8.25;;;6.18;;
19505;SDS011;9894;50.852;-0.140;2023-07-02T14:22:07;11.38;;;6.30;;
19505;SDS011;9894;50.852;-0.140;2023-07-02T14:24:33;6.38;;;5.82;;
19505;SDS011;9894;50.852;-0.140;2023-07-02T14:27:00;20.55;;;6.65;;
19505;SDS011;9894;50.852;-0.140;2023-07-02T14:29:26;7.53;;;6.18;;
19505;SDS011;9894;50.852;-0.140;2023-07-02T14:31:52;6.53;;;6.03;;
19505;SDS011;9894;50.852;-0.140;2023-07-02T14:34:18;6.63;;;6.00;;
19505;SDS011;9894;50.852;-0.140;2023-07-02T14:36:44;14.18;;;7.35;;
19505;SDS011;9894;50.852;-0.140;2023-07-02T14:39:10;7.75;;;6.07;;
19505;SDS011;9894;50.852;-0.140;2023-07-02T14:41:36;6.05;;;5.65;;
19505;SDS011;9894;50.852;-0.140;2023-07-02T14:44:03;6.80;;;5.82;;
19505;SDS011;9894;50.852;-0.140;2023-07-02T14:46:30;8.38;;;6.53;;
19505;SDS011;9894;50.852;-0.140;2023-07-02T14:48:56;26.70;;;7.03;;
19505;SDS011;9894;50.852;-0.140;2023-07-02T14:51:22;10.98;;;6.45;;
19505;SDS011;9894;50.852;-0.140;2023-07-02T14:53:49;11.88;;;6.28;;